Time;durP1;ratioP1;P1;durP2;ratioP2;P2;SDS_P1;SDS_P2;PMS_P1;PMS_P2;Temp;Humidity;BMP_temperature;BMP_pressure;BME280_temperature;BME280_humidity;BME280_pressure;Samples;Min_cycle;Max_cycle;Signal;HPM_P1;HPM_P2
2021/11/16 00:01:55;;;;;;;262.27;19.58;;;;;;;;;;5018024;28;20482;-58
2021/11/16 00:04:21;;;;;;;293.48;21.95;;;;;;;;;;5029360;28;20064;-55
2021/11/16 00:06:51;;;;;;;172.77;15.50;;;;;;;;;;5039525;28;20145;-58
2021/11/16 00:09:18;;;;;;;226.55;18.63;;;;;;;;;;5037808;28;20094;-58
2021/11/16 00:11:44;;;;;;;128.48;10.73;;;;;;;;;;5031032;28;20040;-57
2021/11/16 00:14:10;;;;;;;217.32;18.20;;;;;;;;;;5023909;28;20081;-56
2021/11/16 00:16:40;;;;;;;115.57;11.75;;;;;;;;;;5024650;28;20832;-56
2021/11/16 00:19:11;;;;;;;123.93;10.55;;;;;;;;;;5023884;28;20099;-57
2021/11/16 00:21:40;;;;;;;197.07;16.60;;;;;;;;;;5028714;28;20054;-58
2021/11/16 00:24:11;;;;;;;159.15;11.57;;;;;;;;;;5017376;28;20076;-57
2021/11/16 00:26:37;;;;;;;150.00;12.32;;;;;;;;;;5016368;28;20176;-58
2021/11/16 00:29:03;;;;;;;137.88;11.40;;;;;;;;;;5017663;28;20107;-57
2021/11/16 00:31:31;;;;;;;86.63;9.05;;;;;;;;;;5016934;28;20045;-54
2021/11/16 00:33:58;;;;;;;97.63;9.05;;;;;;;;;;5019319;28;20029;-59
2021/11/16 00:36:24;;;;;;;246.75;16.63;;;;;;;;;;5017833;28;20037;-56
2021/11/16 00:38:50;;;;;;;155.38;12.98;;;;;;;;;;5017971;28;20106;-58
2021/11/16 00:41:16;;;;;;;188.50;19.58;;;;;;;;;;5018834;28;20037;-57
2021/11/16 00:43:42;;;;;;;95.38;10.27;;;;;;;;;;5016090;28;20049;-57
2021/11/16 00:46:08;;;;;;;199.40;15.27;;;;;;;;;;5021895;28;20046;-56
2021/11/16 00:48:34;;;;;;;74.88;7.40;;;;;;;;;;5027833;28;20041;-56
2021/11/16 00:51:02;;;;;;;147.63;13.10;;;;;;;;;;5030106;28;20053;-57
2021/11/16 00:53:29;;;;;;;94.47;10.10;;;;;;;;;;5028440;28;20114;-56
2021/11/16 00:55:55;;;;;;;134.07;11.32;;;;;;;;;;5027880;28;20037;-55
2021/11/16 00:58:21;;;;;;;94.88;9.15;;;;;;;;;;5026104;28;20037;-57
2021/11/16 01:00:48;;;;;;;57.85;7.20;;;;;;;;;;5027655;28;21802;-57
2021/11/16 01:03:14;;;;;;;58.22;6.50;;;;;;;;;;5029659;28;20037;-58
2021/11/16 01:05:41;;;;;;;101.15;8.45;;;;;;;;;;5021265;28;20041;-56
2021/11/16 01:08:08;;;;;;;41.17;5.68;;;;;;;;;;5032041;28;20048;-57
2021/11/16 01:10:35;;;;;;;53.90;6.00;;;;;;;;;;5022568;28;20048;-56
2021/11/16 01:13:01;;;;;;;46.10;7.05;;;;;;;;;;5021177;28;21190;-55
2021/11/16 01:15:27;;;;;;;34.45;5.53;;;;;;;;;;5018964;28;20120;-57
2021/11/16 01:17:54;;;;;;;60.80;6.53;;;;;;;;;;5022333;28;20095;-55
2021/11/16 01:20:21;;;;;;;23.52;5.28;;;;;;;;;;5025080;28;20069;-58
2021/11/16 01:22:49;;;;;;;34.90;6.05;;;;;;;;;;5035013;28;20034;-57
2021/11/16 01:25:15;;;;;;;40.33;6.60;;;;;;;;;;5044858;28;20052;-57
2021/11/16 01:27:41;;;;;;;34.92;6.80;;;;;;;;;;5020550;28;20048;-58
2021/11/16 01:30:09;;;;;;;23.67;7.53;;;;;;;;;;5022387;28;20068;-53
2021/11/16 01:32:40;;;;;;;14.52;7.07;;;;;;;;;;4991806;28;20060;-54
2021/11/16 01:35:07;;;;;;;25.48;8.48;;;;;;;;;;5021474;28;20395;-58
2021/11/16 01:37:33;;;;;;;28.90;7.68;;;;;;;;;;5020619;28;20037;-57
2021/11/16 01:39:59;;;;;;;37.13;7.60;;;;;;;;;;5022187;28;20049;-57
2021/11/16 01:42:25;;;;;;;38.72;7.57;;;;;;;;;;5020062;28;20033;-56
2021/11/16 01:44:51;;;;;;;20.90;6.47;;;;;;;;;;5021201;28;20119;-58
2021/11/16 01:47:18;;;;;;;18.83;6.75;;;;;;;;;;5021176;28;20045;-57
2021/11/16 01:49:44;;;;;;;22.25;6.25;;;;;;;;;;5021801;28;20045;-57
2021/11/16 01:52:10;;;;;;;25.52;7.70;;;;;;;;;;5021533;28;20973;-57
2021/11/16 01:54:36;;;;;;;24.15;6.60;;;;;;;;;;5020983;28;20990;-58
2021/11/16 01:57:03;;;;;;;23.38;6.93;;;;;;;;;;5020959;28;20047;-57
2021/11/16 01:59:35;;;;;;;88.65;11.48;;;;;;;;;;5020001;28;20033;-59
2021/11/16 02:02:03;;;;;;;72.00;11.68;;;;;;;;;;5022277;28;20034;-57
2021/11/16 02:04:29;;;;;;;103.32;13.65;;;;;;;;;;5035202;28;20648;-57
2021/11/16 02:06:55;;;;;;;69.82;11.18;;;;;;;;;;4991115;28;20379;-58
2021/11/16 02:09:21;;;;;;;69.68;12.80;;;;;;;;;;5033062;28;20047;-58
2021/11/16 02:11:47;;;;;;;15.02;8.50;;;;;;;;;;5020870;28;20414;-57
2021/11/16 02:14:14;;;;;;;27.15;10.07;;;;;;;;;;5024370;28;20044;-56
2021/11/16 02:16:41;;;;;;;48.95;11.80;;;;;;;;;;5021263;28;20038;-58
2021/11/16 02:19:08;;;;;;;33.00;10.90;;;;;;;;;;5021437;28;20045;-56
2021/11/16 02:21:36;;;;;;;33.75;12.55;;;;;;;;;;5021091;28;20144;-60
2021/11/16 02:24:03;;;;;;;16.67;9.27;;;;;;;;;;5022550;28;20053;-58
2021/11/16 02:26:30;;;;;;;18.40;9.23;;;;;;;;;;5020054;28;20037;-57
2021/11/16 02:28:56;;;;;;;18.52;8.90;;;;;;;;;;5021031;28;20041;-56
2021/11/16 02:31:22;;;;;;;15.98;8.18;;;;;;;;;;5021421;28;20445;-60
2021/11/16 02:33:48;;;;;;;17.73;8.23;;;;;;;;;;5021069;28;20056;-57
2021/11/16 02:36:14;;;;;;;13.60;5.28;;;;;;;;;;5020812;28;20486;-58
2021/11/16 02:38:41;;;;;;;12.82;4.80;;;;;;;;;;5018924;28;20091;-56
2021/11/16 02:41:07;;;;;;;7.70;3.30;;;;;;;;;;5020167;28;20121;-57
2021/11/16 02:43:34;;;;;;;5.40;1.95;;;;;;;;;;5018768;28;20052;-58
2021/11/16 02:46:02;;;;;;;5.43;1.73;;;;;;;;;;5017756;28;20041;-57
2021/11/16 02:48:28;;;;;;;4.03;1.40;;;;;;;;;;5019492;28;20254;-56
2021/11/16 02:50:56;;;;;;;5.32;2.10;;;;;;;;;;5019593;28;20044;-58
2021/11/16 02:53:23;;;;;;;5.97;1.80;;;;;;;;;;5017559;28;20052;-58
2021/11/16 02:55:49;;;;;;;4.85;1.70;;;;;;;;;;5020936;28;20044;-57
2021/11/16 02:58:15;;;;;;;5.60;2.33;;;;;;;;;;5019968;28;20042;-58
2021/11/16 03:00:44;;;;;;;4.88;2.40;;;;;;;;;;5020109;28;20057;-58
2021/11/16 03:03:10;;;;;;;4.25;1.90;;;;;;;;;;5020328;28;20082;-58
2021/11/16 03:05:36;;;;;;;4.85;2.00;;;;;;;;;;5017472;28;20049;-56
2021/11/16 03:08:11;;;;;;;3.40;1.40;;;;;;;;;;5019141;28;20041;-58
2021/11/16 03:10:37;;;;;;;2.50;1.10;;;;;;;;;;5040126;28;20701;-58
2021/11/16 03:13:03;;;;;;;2.22;0.75;;;;;;;;;;5017123;28;20781;-57
2021/11/16 03:15:29;;;;;;;2.40;0.70;;;;;;;;;;5019071;28;20039;-58
2021/11/16 03:17:55;;;;;;;2.85;0.95;;;;;;;;;;5033996;28;21943;-58
2021/11/16 03:20:21;;;;;;;1.33;0.47;;;;;;;;;;5020213;28;20041;-59
2021/11/16 03:22:51;;;;;;;1.75;0.40;;;;;;;;;;5019280;28;20092;-59
2021/11/16 03:25:18;;;;;;;0.73;0.32;;;;;;;;;;5019586;28;20141;-58
2021/11/16 03:27:45;;;;;;;1.50;0.50;;;;;;;;;;5044052;28;20816;-57
2021/11/16 03:30:12;;;;;;;1.05;0.40;;;;;;;;;;5030553;28;20075;-58
2021/11/16 03:32:38;;;;;;;1.42;0.47;;;;;;;;;;5025046;28;20049;-56
2021/11/16 03:35:05;;;;;;;1.10;0.50;;;;;;;;;;5025996;28;20032;-59
2021/11/16 03:37:34;;;;;;;0.65;0.30;;;;;;;;;;5039855;28;20029;-57
2021/11/16 03:40:00;;;;;;;1.33;0.50;;;;;;;;;;5009430;28;20041;-54
2021/11/16 03:42:26;;;;;;;1.30;0.40;;;;;;;;;;5003599;28;20678;-59
2021/11/16 03:44:52;;;;;;;0.82;0.32;;;;;;;;;;5026201;28;20072;-58
2021/11/16 03:47:19;;;;;;;1.15;0.35;;;;;;;;;;5024011;28;20454;-55
2021/11/16 03:49:46;;;;;;;1.63;0.50;;;;;;;;;;5027844;28;20037;-58
2021/11/16 03:52:12;;;;;;;0.30;0.30;;;;;;;;;;5026088;28;20132;-55
2021/11/16 03:54:38;;;;;;;5.18;0.60;;;;;;;;;;5008143;28;20061;-58
2021/11/16 03:57:04;;;;;;;1.00;0.40;;;;;;;;;;5024487;28;20037;-57
2021/11/16 03:59:31;;;;;;;2.45;0.50;;;;;;;;;;5026086;28;20044;-58
2021/11/16 04:01:58;;;;;;;0.90;0.38;;;;;;;;;;5023216;28;20718;-55
2021/11/16 04:04:24;;;;;;;1.65;0.50;;;;;;;;;;5033013;28;20063;-57
2021/11/16 04:06:50;;;;;;;0.30;0.30;;;;;;;;;;5029037;28;20041;-57
2021/11/16 04:09:16;;;;;;;0.70;0.38;;;;;;;;;;5024697;28;20120;-58
2021/11/16 04:11:42;;;;;;;1.50;0.40;;;;;;;;;;5022912;28;20183;-58
2021/11/16 04:14:08;;;;;;;0.75;0.40;;;;;;;;;;5021218;28;20041;-56
2021/11/16 04:16:34;;;;;;;1.27;0.50;;;;;;;;;;5019622;28;20064;-57
2021/11/16 04:19:01;;;;;;;1.88;0.50;;;;;;;;;;5020139;28;20064;-58
2021/11/16 04:21:27;;;;;;;1.33;0.50;;;;;;;;;;5020452;28;20067;-57
2021/11/16 04:23:52;;;;;;;1.35;0.40;;;;;;;;;;5021471;28;20077;-58
2021/11/16 04:26:19;;;;;;;1.00;0.40;;;;;;;;;;5021118;28;20033;-55
2021/11/16 04:28:45;;;;;;;0.93;0.40;;;;;;;;;;5036321;28;20117;-56
2021/11/16 04:31:10;;;;;;;0.30;0.30;;;;;;;;;;5020467;28;20041;-57
2021/11/16 04:33:38;;;;;;;0.93;0.40;;;;;;;;;;5018521;28;20412;-58
2021/11/16 04:36:04;;;;;;;1.80;0.47;;;;;;;;;;5001876;28;20183;-60
2021/11/16 04:38:30;;;;;;;0.80;0.40;;;;;;;;;;5016954;28;20056;-59
2021/11/16 04:40:57;;;;;;;1.30;0.47;;;;;;;;;;5020829;28;20765;-58
2021/11/16 04:43:26;;;;;;;1.15;0.50;;;;;;;;;;5021472;28;20048;-58
2021/11/16 04:45:55;;;;;;;1.10;0.40;;;;;;;;;;5021086;28;20317;-57
2021/11/16 05:04:12;;;;;;;2.20;0.65;;;;;;;;;;5031071;28;21770;-58
2021/11/16 05:06:38;;;;;;;1.15;0.50;;;;;;;;;;5026870;28;20037;-59
2021/11/16 05:09:04;;;;;;;1.60;0.60;;;;;;;;;;5032982;28;20045;-60
2021/11/16 05:11:30;;;;;;;1.63;0.60;;;;;;;;;;5030105;28;20034;-58
2021/11/16 05:13:56;;;;;;;2.33;0.60;;;;;;;;;;5046895;28;20121;-58
2021/11/16 05:16:23;;;;;;;1.67;0.63;;;;;;;;;;5019623;28;20042;-56
2021/11/16 05:18:49;;;;;;;2.47;0.80;;;;;;;;;;5031950;28;20056;-59
2021/11/16 05:21:15;;;;;;;2.25;0.80;;;;;;;;;;5044437;28;20047;-59
2021/11/16 05:23:51;;;;;;;1.20;0.40;;;;;;;;;;5047281;28;20041;-56
2021/11/16 05:26:17;;;;;;;1.25;0.50;;;;;;;;;;5047833;28;20112;-59
2021/11/16 05:28:43;;;;;;;0.98;0.40;;;;;;;;;;5047190;28;20037;-57
2021/11/16 05:31:09;;;;;;;1.48;0.45;;;;;;;;;;5048184;28;20402;-58
2021/11/16 05:33:35;;;;;;;1.52;0.50;;;;;;;;;;5030639;28;20076;-59
2021/11/16 05:36:01;;;;;;;0.93;0.40;;;;;;;;;;5048178;28;20048;-56
2021/11/16 05:38:28;;;;;;;0.63;0.40;;;;;;;;;;5049098;28;20142;-58
2021/11/16 05:40:54;;;;;;;1.38;0.43;;;;;;;;;;5051759;28;20389;-59
2021/11/16 05:43:20;;;;;;;1.27;0.40;;;;;;;;;;5051206;28;20048;-59
2021/11/16 05:45:46;;;;;;;1.15;0.40;;;;;;;;;;5050458;28;20056;-59
2021/11/16 05:48:12;;;;;;;1.02;0.40;;;;;;;;;;5048560;28;20071;-58
2021/11/16 05:50:39;;;;;;;0.98;0.40;;;;;;;;;;5046371;28;20045;-58
2021/11/16 05:53:10;;;;;;;1.65;0.50;;;;;;;;;;5048924;28;20032;-58
2021/11/16 05:55:36;;;;;;;1.17;0.40;;;;;;;;;;5047905;28;20973;-59
2021/11/16 05:58:03;;;;;;;1.05;0.40;;;;;;;;;;5050785;28;20044;-57
2021/11/16 06:00:29;;;;;;;0.63;0.30;;;;;;;;;;5049154;28;20047;-59
2021/11/16 06:02:55;;;;;;;1.58;0.50;;;;;;;;;;5047387;28;20122;-58
2021/11/16 06:05:21;;;;;;;2.63;0.47;;;;;;;;;;5026578;28;20144;-58
2021/11/16 06:07:47;;;;;;;1.73;0.40;;;;;;;;;;5030926;28;20039;-58
2021/11/16 06:10:13;;;;;;;1.35;0.50;;;;;;;;;;5051929;28;20104;-59
2021/11/16 06:12:39;;;;;;;1.13;0.40;;;;;;;;;;5048833;28;20044;-58
2021/11/16 06:15:05;;;;;;;2.50;0.50;;;;;;;;;;5048736;28;20040;-58
2021/11/16 06:17:31;;;;;;;1.42;0.40;;;;;;;;;;5047043;28;20071;-59
2021/11/16 06:19:58;;;;;;;1.80;0.50;;;;;;;;;;5049604;28;20552;-58
2021/11/16 06:22:24;;;;;;;1.58;0.50;;;;;;;;;;5046624;28;20040;-59
2021/11/16 06:24:50;;;;;;;1.50;0.50;;;;;;;;;;5046852;28;20045;-57
2021/11/16 06:27:16;;;;;;;2.00;0.60;;;;;;;;;;5049198;28;20486;-58
2021/11/16 06:29:42;;;;;;;1.38;0.40;;;;;;;;;;5048339;28;20104;-57
2021/11/16 06:32:09;;;;;;;0.93;0.40;;;;;;;;;;5049594;28;20122;-58
2021/11/16 06:34:35;;;;;;;0.73;0.40;;;;;;;;;;5046954;28;20083;-60
2021/11/16 06:37:01;;;;;;;2.88;1.02;;;;;;;;;;5047392;28;20032;-60
2021/11/16 06:39:27;;;;;;;3.30;1.42;;;;;;;;;;5048020;28;20397;-57
2021/11/16 06:41:55;;;;;;;5.50;3.13;;;;;;;;;;5047849;28;20052;-58
2021/11/16 06:44:21;;;;;;;6.38;3.08;;;;;;;;;;5046852;28;20057;-57
2021/11/16 06:46:48;;;;;;;6.75;3.03;;;;;;;;;;5047850;28;20094;-59
2021/11/16 06:49:15;;;;;;;3.63;1.73;;;;;;;;;;5049098;28;20777;-58
2021/11/16 06:51:41;;;;;;;5.70;2.92;;;;;;;;;;5047062;28;20040;-57
2021/11/16 06:54:09;;;;;;;5.03;2.50;;;;;;;;;;5047334;28;20520;-58
2021/11/16 06:56:36;;;;;;;2.60;1.52;;;;;;;;;;5047524;28;20037;-57
2021/11/16 06:59:02;;;;;;;4.60;2.05;;;;;;;;;;5047428;28;20040;-58
2021/11/16 07:01:29;;;;;;;4.95;2.78;;;;;;;;;;5029415;28;20080;-56
2021/11/16 07:03:58;;;;;;;5.25;2.60;;;;;;;;;;5048058;28;20056;-59
2021/11/16 07:06:29;;;;;;;5.20;2.83;;;;;;;;;;5046554;28;20052;-56
2021/11/16 07:08:55;;;;;;;5.65;3.15;;;;;;;;;;5048735;28;20064;-56
2021/11/16 07:11:22;;;;;;;4.82;1.73;;;;;;;;;;5047865;28;20057;-58
2021/11/16 07:13:59;;;;;;;5.60;1.75;;;;;;;;;;5049738;28;20464;-58
2021/11/16 07:16:27;;;;;;;4.97;2.28;;;;;;;;;;5043944;28;20045;-57
2021/11/16 07:18:56;;;;;;;5.65;2.40;;;;;;;;;;5048926;28;20041;-59
2021/11/16 07:21:23;;;;;;;4.53;1.83;;;;;;;;;;5048959;28;20047;-57
2021/11/16 07:24:05;;;;;;;2.83;1.17;;;;;;;;;;5048599;28;20049;-58
2021/11/16 07:26:32;;;;;;;2.90;1.30;;;;;;;;;;5049341;28;20040;-57
2021/11/16 07:28:58;;;;;;;3.03;1.25;;;;;;;;;;5048862;28;20063;-58
2021/11/16 07:31:26;;;;;;;3.38;1.45;;;;;;;;;;5049283;28;20052;-57
2021/11/16 07:33:59;;;;;;;3.25;1.50;;;;;;;;;;5032672;28;20068;-59
2021/11/16 07:36:25;;;;;;;3.60;1.92;;;;;;;;;;5047228;28;20141;-58
2021/11/16 07:38:51;;;;;;;3.55;1.40;;;;;;;;;;5048297;28;20539;-58
2021/11/16 07:41:23;;;;;;;5.53;1.85;;;;;;;;;;5047232;28;20029;-58
2021/11/16 07:43:50;;;;;;;2.65;1.20;;;;;;;;;;5047737;28;20040;-58
2021/11/16 07:46:16;;;;;;;2.80;0.93;;;;;;;;;;5049087;28;20116;-57
2021/11/16 07:48:42;;;;;;;2.50;1.05;;;;;;;;;;5047857;28;20123;-58
2021/11/16 07:51:13;;;;;;;2.55;1.00;;;;;;;;;;5046519;28;20037;-56
2021/11/16 07:53:50;;;;;;;2.03;0.82;;;;;;;;;;5046707;28;20154;-57
2021/11/16 07:56:22;;;;;;;1.88;0.70;;;;;;;;;;5046371;28;20071;-57
2021/11/16 07:58:51;;;;;;;1.73;0.60;;;;;;;;;;5047063;28;20043;-58
2021/11/16 08:01:22;;;;;;;1.92;0.70;;;;;;;;;;5046944;28;20047;-58
2021/11/16 08:03:50;;;;;;;1.17;0.40;;;;;;;;;;5047096;28;20059;-59
2021/11/16 08:06:23;;;;;;;2.53;0.68;;;;;;;;;;5045785;28;20037;-58
2021/11/16 08:08:55;;;;;;;6.10;0.70;;;;;;;;;;5046420;28;20102;-59
2021/11/16 08:11:38;;;;;;;1.02;0.40;;;;;;;;;;5046865;28;20691;-59
2021/11/16 08:14:06;;;;;;;1.17;0.40;;;;;;;;;;5046341;28;20077;-59
2021/11/16 08:16:34;;;;;;;1.00;0.40;;;;;;;;;;5045706;28;21018;-59
2021/11/16 08:19:21;;;;;;;0.50;0.30;;;;;;;;;;5048448;28;20041;-59
2021/11/16 08:21:48;;;;;;;1.08;0.40;;;;;;;;;;5047089;28;20041;-59
2021/11/16 08:24:15;;;;;;;1.08;0.40;;;;;;;;;;5047979;28;20118;-58
2021/11/16 08:26:43;;;;;;;1.02;0.50;;;;;;;;;;5044918;28;20060;-59
2021/11/16 08:29:09;;;;;;;1.30;0.40;;;;;;;;;;5047434;28;20056;-59
2021/11/16 08:31:42;;;;;;;0.65;0.38;;;;;;;;;;5032873;28;20670;-59
2021/11/16 08:34:09;;;;;;;1.33;0.40;;;;;;;;;;5045617;28;20036;-60
2021/11/16 08:37:05;;;;;;;3.17;0.70;;;;;;;;;;5045422;28;20044;-59
2021/11/16 08:39:39;;;;;;;2.20;0.70;;;;;;;;;;5029386;28;20041;-58
2021/11/16 08:42:21;;;;;;;1.83;0.68;;;;;;;;;;5047948;28;20166;-60
2021/11/16 08:45:00;;;;;;;2.00;0.70;;;;;;;;;;5047937;28;20094;-58
2021/11/16 08:47:27;;;;;;;2.55;0.95;;;;;;;;;;5028184;28;20042;-60
2021/11/16 08:49:53;;;;;;;3.72;1.25;;;;;;;;;;5027578;28;20065;-58
2021/11/16 08:52:20;;;;;;;2.60;0.90;;;;;;;;;;5027418;28;20494;-59
2021/11/16 08:54:57;;;;;;;3.85;1.05;;;;;;;;;;5029174;28;20201;-58
2021/11/16 08:57:25;;;;;;;4.13;1.52;;;;;;;;;;5025151;28;20456;-58
2021/11/16 08:59:51;;;;;;;2.88;1.10;;;;;;;;;;5020547;28;20381;-58
2021/11/16 09:02:18;;;;;;;3.15;1.08;;;;;;;;;;5023690;28;20482;-57
2021/11/16 09:04:44;;;;;;;2.15;0.70;;;;;;;;;;5027480;28;20055;-58
2021/11/16 09:07:17;;;;;;;2.50;0.93;;;;;;;;;;5047291;28;20051;-59
2021/11/16 09:09:52;;;;;;;2.45;1.05;;;;;;;;;;5046049;28;23055;-58
2021/11/16 09:12:18;;;;;;;2.55;0.90;;;;;;;;;;5047619;28;20040;-58
2021/11/16 09:14:54;;;;;;;2.72;0.73;;;;;;;;;;5032429;28;20371;-58
2021/11/16 09:17:20;;;;;;;2.72;1.13;;;;;;;;;;5020677;28;20128;-59
2021/11/16 09:19:46;;;;;;;3.25;1.38;;;;;;;;;;5024740;28;20042;-58
2021/11/16 09:22:16;;;;;;;3.67;1.70;;;;;;;;;;5043363;28;20039;-58
2021/11/16 09:24:44;;;;;;;3.40;1.98;;;;;;;;;;5020962;28;20041;-60
2021/11/16 09:27:21;;;;;;;2.80;1.30;;;;;;;;;;5021877;28;20048;-59
2021/11/16 09:29:49;;;;;;;3.35;1.65;;;;;;;;;;5021637;28;20525;-59
2021/11/16 09:32:15;;;;;;;3.60;1.58;;;;;;;;;;5023016;28;20057;-60
2021/11/16 09:34:48;;;;;;;3.38;1.90;;;;;;;;;;5021812;28;20690;-60
2021/11/16 09:37:18;;;;;;;5.35;1.90;;;;;;;;;;5021280;28;20041;-59
2021/11/16 09:39:54;;;;;;;4.53;1.55;;;;;;;;;;5048319;28;20167;-58
2021/11/16 09:42:28;;;;;;;2.85;1.40;;;;;;;;;;5048046;28;20123;-60
2021/11/16 09:44:57;;;;;;;7.70;1.60;;;;;;;;;;5048279;28;20516;-59
2021/11/16 09:47:31;;;;;;;2.50;1.10;;;;;;;;;;5030636;28;20045;-58
2021/11/16 09:49:58;;;;;;;2.80;1.40;;;;;;;;;;5029450;28;20510;-56
2021/11/16 09:52:24;;;;;;;3.53;1.38;;;;;;;;;;5027549;28;20080;-56
2021/11/16 09:54:52;;;;;;;5.95;1.27;;;;;;;;;;5006742;28;20122;-57
2021/11/16 09:57:20;;;;;;;3.72;1.25;;;;;;;;;;5028299;28;20343;-59
2021/11/16 09:59:46;;;;;;;2.30;1.10;;;;;;;;;;5028779;28;20037;-60
2021/11/16 10:02:23;;;;;;;2.95;0.95;;;;;;;;;;5028688;28;20069;-60
2021/11/16 10:04:51;;;;;;;2.40;1.17;;;;;;;;;;5049466;28;20186;-59
2021/11/16 10:07:18;;;;;;;3.55;1.63;;;;;;;;;;5049484;28;20040;-59
2021/11/16 10:09:49;;;;;;;2.70;1.00;;;;;;;;;;5049053;28;20592;-58
2021/11/16 10:12:17;;;;;;;2.55;0.88;;;;;;;;;;5049648;28;20071;-57
2021/11/16 10:14:43;;;;;;;2.70;1.00;;;;;;;;;;5048878;28;20393;-57
2021/11/16 10:17:09;;;;;;;2.30;0.95;;;;;;;;;;5047696;28;20056;-58
2021/11/16 10:19:35;;;;;;;3.15;0.80;;;;;;;;;;5050083;28;20033;-59
2021/11/16 10:22:01;;;;;;;2.47;0.90;;;;;;;;;;5049137;28;20811;-58
2021/11/16 10:24:30;;;;;;;2.10;0.82;;;;;;;;;;5047023;28;20515;-58
2021/11/16 10:26:58;;;;;;;2.40;0.73;;;;;;;;;;5049534;28;20036;-59
2021/11/16 10:29:24;;;;;;;3.30;1.13;;;;;;;;;;5049273;28;20393;-59
2021/11/16 10:31:50;;;;;;;7.13;0.90;;;;;;;;;;5049965;28;20042;-60
2021/11/16 10:34:16;;;;;;;2.20;0.90;;;;;;;;;;5050679;28;20032;-58
2021/11/16 10:36:42;;;;;;;2.47;0.70;;;;;;;;;;5049031;28;20033;-58
2021/11/16 10:39:08;;;;;;;1.80;0.70;;;;;;;;;;5050476;28;20461;-59
2021/11/16 10:41:35;;;;;;;2.17;1.05;;;;;;;;;;5049510;28;20049;-58
2021/11/16 10:44:03;;;;;;;2.35;0.73;;;;;;;;;;5049897;28;20044;-58
2021/11/16 10:46:30;;;;;;;3.22;0.68;;;;;;;;;;5049833;28;20478;-56
2021/11/16 10:48:58;;;;;;;2.05;0.80;;;;;;;;;;5051408;28;20032;-56
2021/11/16 10:51:33;;;;;;;1.65;0.60;;;;;;;;;;5049648;28;20037;-58
2021/11/16 10:54:00;;;;;;;1.48;0.68;;;;;;;;;;5049753;28;20520;-59
2021/11/16 10:56:28;;;;;;;1.15;0.47;;;;;;;;;;5029475;28;20044;-58
2021/11/16 10:58:55;;;;;;;2.15;0.70;;;;;;;;;;5050195;28;20215;-54
2021/11/16 11:01:22;;;;;;;2.08;0.85;;;;;;;;;;5048008;28;20068;-55
2021/11/16 11:03:54;;;;;;;2.25;0.70;;;;;;;;;;5047799;28;22082;-56
2021/11/16 11:06:25;;;;;;;1.95;0.70;;;;;;;;;;5045819;28;20159;-54
2021/11/16 11:08:52;;;;;;;0.80;0.45;;;;;;;;;;5046049;28;20454;-57
2021/11/16 11:11:20;;;;;;;1.85;0.60;;;;;;;;;;5046524;28;20437;-54
2021/11/16 11:13:47;;;;;;;1.48;0.55;;;;;;;;;;5047183;28;20120;-56
2021/11/16 11:16:17;;;;;;;3.38;0.60;;;;;;;;;;5047576;28;20033;-56
2021/11/16 11:18:45;;;;;;;1.35;0.50;;;;;;;;;;5029712;28;20681;-54
2021/11/16 11:21:23;;;;;;;0.88;0.45;;;;;;;;;;5047101;28;20757;-57
2021/11/16 11:23:53;;;;;;;1.13;0.55;;;;;;;;;;5047212;28;20052;-55
2021/11/16 11:26:29;;;;;;;2.08;0.60;;;;;;;;;;5047238;28;20048;-57
2021/11/16 11:29:15;;;;;;;3.58;0.80;;;;;;;;;;5048598;28;20040;-57
2021/11/16 11:31:42;;;;;;;1.70;0.60;;;;;;;;;;5047516;28;20036;-58
2021/11/16 11:34:08;;;;;;;1.90;0.60;;;;;;;;;;5047572;28;20041;-59
2021/11/16 11:36:34;;;;;;;0.98;0.45;;;;;;;;;;5047313;28;20059;-57
2021/11/16 11:38:59;;;;;;;1.80;0.75;;;;;;;;;;5049822;28;20354;-61
2021/11/16 11:41:26;;;;;;;2.20;0.80;;;;;;;;;;5047413;28;20064;-58
2021/11/16 11:44:14;;;;;;;3.17;1.17;;;;;;;;;;5050008;28;20048;-58
2021/11/16 11:46:59;;;;;;;1.45;0.60;;;;;;;;;;5046835;28;20071;-55
2021/11/16 11:49:28;;;;;;;2.50;0.80;;;;;;;;;;5049406;28;20076;-59
2021/11/16 11:51:56;;;;;;;2.75;0.90;;;;;;;;;;5047107;28;20047;-59
2021/11/16 11:54:22;;;;;;;1.88;0.63;;;;;;;;;;5046471;28;20040;-58
2021/11/16 11:56:50;;;;;;;1.30;0.70;;;;;;;;;;5047219;28;20044;-58
2021/11/16 11:59:17;;;;;;;2.50;0.90;;;;;;;;;;5028926;28;20040;-55
2021/11/16 12:01:43;;;;;;;1.33;0.60;;;;;;;;;;5045813;28;20116;-57
2021/11/16 12:04:10;;;;;;;2.17;0.80;;;;;;;;;;5046877;28;20136;-57
2021/11/16 12:06:36;;;;;;;1.55;0.55;;;;;;;;;;5027426;28;20118;-57
2021/11/16 12:09:03;;;;;;;2.42;0.70;;;;;;;;;;5049165;28;20047;-58
2021/11/16 12:11:28;;;;;;;1.98;0.70;;;;;;;;;;5045652;28;20380;-58
2021/11/16 12:13:55;;;;;;;2.47;0.75;;;;;;;;;;5034292;28;20049;-59
2021/11/16 12:16:39;;;;;;;2.15;0.80;;;;;;;;;;5027210;28;20565;-59
2021/11/16 12:19:09;;;;;;;2.45;0.75;;;;;;;;;;5030092;28;20094;-57
2021/11/16 12:21:39;;;;;;;3.08;1.17;;;;;;;;;;5020932;28;20041;-57
2021/11/16 12:24:07;;;;;;;2.67;0.95;;;;;;;;;;5020140;28;20049;-58
2021/11/16 12:26:35;;;;;;;1.85;0.73;;;;;;;;;;5019680;28;20041;-56
2021/11/16 12:29:21;;;;;;;2.15;0.80;;;;;;;;;;5023097;28;20064;-59
2021/11/16 12:31:49;;;;;;;2.40;1.27;;;;;;;;;;5019591;28;20076;-58
2021/11/16 12:34:42;;;;;;;2.35;0.98;;;;;;;;;;5019892;28;20053;-57
2021/11/16 12:37:10;;;;;;;3.20;1.27;;;;;;;;;;5018140;28;20053;-58
2021/11/16 12:39:52;;;;;;;3.05;1.42;;;;;;;;;;5017635;28;20505;-56
2021/11/16 12:42:18;;;;;;;3.13;1.10;;;;;;;;;;5022130;28;20108;-58
2021/11/16 12:44:44;;;;;;;2.15;0.75;;;;;;;;;;5024267;28;20041;-57
2021/11/16 12:47:10;;;;;;;2.58;1.00;;;;;;;;;;5025115;28;20045;-57
2021/11/16 12:49:38;;;;;;;2.65;1.13;;;;;;;;;;5024458;28;20679;-54
2021/11/16 12:52:06;;;;;;;3.03;1.02;;;;;;;;;;5027036;28;20053;-58
2021/11/16 12:54:34;;;;;;;2.88;0.95;;;;;;;;;;5024243;28;20155;-56
2021/11/16 12:57:00;;;;;;;3.20;1.10;;;;;;;;;;5024330;28;20375;-56
2021/11/16 12:59:29;;;;;;;2.40;0.90;;;;;;;;;;5023355;28;20398;-55
2021/11/16 13:02:00;;;;;;;3.05;1.10;;;;;;;;;;5026076;28;20584;-55
2021/11/16 13:04:48;;;;;;;3.60;1.20;;;;;;;;;;5023956;28;20567;-56
2021/11/16 13:07:32;;;;;;;3.42;1.30;;;;;;;;;;5024984;28;20037;-55
2021/11/16 13:09:59;;;;;;;2.65;1.00;;;;;;;;;;5024089;28;20042;-57
2021/11/16 13:12:35;;;;;;;2.65;1.23;;;;;;;;;;5024025;28;20076;-57
2021/11/16 13:18:11;;;;;;;2.55;1.02;;;;;;;;;;5023498;28;20048;-58
2021/11/16 13:21:04;;;;;;;2.17;0.80;;;;;;;;;;5023271;28;20124;-58
2021/11/16 13:23:51;;;;;;;2.65;1.10;;;;;;;;;;5017109;28;20096;-55
2021/11/16 13:26:23;;;;;;;2.28;0.90;;;;;;;;;;5023188;28;20102;-58
2021/11/16 13:29:11;;;;;;;3.03;1.08;;;;;;;;;;5024859;28;20071;-55
2021/11/16 13:31:41;;;;;;;3.15;1.13;;;;;;;;;;5024146;28;20250;-57
2021/11/16 13:34:15;;;;;;;1.27;0.52;;;;;;;;;;5025781;28;20528;-56
2021/11/16 13:36:47;;;;;;;1.63;0.75;;;;;;;;;;5024968;28;20047;-56
2021/11/16 13:39:14;;;;;;;2.45;1.00;;;;;;;;;;5025628;28;20565;-57
2021/11/16 13:41:46;;;;;;;1.30;0.50;;;;;;;;;;5025183;28;20084;-58
2021/11/16 13:44:15;;;;;;;2.05;0.80;;;;;;;;;;5025215;28;20049;-57
2021/11/16 13:46:45;;;;;;;2.45;0.80;;;;;;;;;;5023540;28;20042;-56
2021/11/16 13:49:20;;;;;;;3.53;1.17;;;;;;;;;;5023700;28;20041;-59
2021/11/16 13:51:47;;;;;;;1.58;0.63;;;;;;;;;;5048422;28;20032;-52
2021/11/16 13:54:13;;;;;;;3.17;1.15;;;;;;;;;;5047581;28;20069;-56
2021/11/16 13:56:44;;;;;;;2.55;0.98;;;;;;;;;;5046993;28;20036;-57
2021/11/16 13:59:16;;;;;;;2.08;0.80;;;;;;;;;;5040713;28;20056;-57
2021/11/16 14:01:43;;;;;;;2.65;0.95;;;;;;;;;;5047702;28;20397;-56
2021/11/16 14:04:12;;;;;;;2.50;0.90;;;;;;;;;;5049338;28;20390;-54
2021/11/16 14:06:39;;;;;;;2.40;0.88;;;;;;;;;;5038564;28;20044;-57
2021/11/16 14:09:13;;;;;;;2.28;0.88;;;;;;;;;;5020854;28;20148;-56
2021/11/16 14:12:07;;;;;;;5.63;1.15;;;;;;;;;;5045904;28;20045;-56
2021/11/16 14:14:35;;;;;;;2.05;0.70;;;;;;;;;;5022679;28;20053;-56
2021/11/16 14:17:06;;;;;;;2.03;0.80;;;;;;;;;;5023594;28;20057;-56
2021/11/16 14:19:45;;;;;;;7.78;0.88;;;;;;;;;;5021657;28;20036;-54
2021/11/16 14:22:34;;;;;;;2.10;0.88;;;;;;;;;;5037964;28;20118;-56
2021/11/16 14:25:23;;;;;;;2.85;1.00;;;;;;;;;;5048280;28;20053;-55
2021/11/16 14:28:02;;;;;;;2.47;0.93;;;;;;;;;;5029594;28;20098;-56
2021/11/16 14:30:31;;;;;;;2.35;0.80;;;;;;;;;;5030080;28;20048;-55
2021/11/16 14:33:03;;;;;;;2.45;0.80;;;;;;;;;;5007528;28;20040;-57
2021/11/16 14:35:35;;;;;;;2.50;0.80;;;;;;;;;;5026189;28;20903;-55
2021/11/16 14:38:03;;;;;;;2.22;0.80;;;;;;;;;;5025317;28;20064;-57
2021/11/16 14:40:31;;;;;;;2.15;0.90;;;;;;;;;;5024039;28;20088;-54
2021/11/16 14:43:03;;;;;;;2.75;0.70;;;;;;;;;;5023554;28;20128;-56
2021/11/16 14:45:33;;;;;;;8.32;1.20;;;;;;;;;;5025267;28;20045;-52
2021/11/16 14:48:07;;;;;;;2.13;0.80;;;;;;;;;;5025547;28;20052;-56
2021/11/16 14:50:38;;;;;;;;;;;;;;;;;;5025447;28;20033;-53
2021/11/16 14:53:12;;;;;;;2.17;0.80;;;;;;;;;;5023731;28;19953;-57
2021/11/16 14:55:48;;;;;;;1.95;0.80;;;;;;;;;;5026712;28;20082;-54
2021/11/16 14:58:15;;;;;;;3.63;0.90;;;;;;;;;;5026075;28;20033;-56
2021/11/16 15:00:46;;;;;;;1.83;0.57;;;;;;;;;;5025108;28;20499;-57
2021/11/16 15:03:23;;;;;;;2.40;0.80;;;;;;;;;;5024727;28;20037;-56
2021/11/16 15:05:53;;;;;;;2.85;1.17;;;;;;;;;;5049339;28;20116;-56
2021/11/16 15:08:27;;;;;;;1.33;0.65;;;;;;;;;;5046630;28;20243;-57